sensor_id;sensor_type;location;lat;lon;timestamp;P1;durP1;ratioP1;P2;durP2;ratioP2
66721;SDS011;53633;49.932;10.884;2022-07-22T00:00:36;14.50;;;7.28;;
66721;SDS011;53633;49.932;10.884;2022-07-22T00:03:03;13.35;;;7.15;;
66721;SDS011;53633;49.932;10.884;2022-07-22T00:05:30;12.68;;;7.03;;
66721;SDS011;53633;49.932;10.884;2022-07-22T00:07:58;14.43;;;7.80;;
66721;SDS011;53633;49.932;10.884;2022-07-22T00:10:24;13.85;;;7.38;;
66721;SDS011;53633;49.932;10.884;2022-07-22T00:12:51;14.65;;;7.32;;
66721;SDS011;53633;49.932;10.884;2022-07-22T00:15:18;14.05;;;6.93;;
66721;SDS011;53633;49.932;10.884;2022-07-22T00:17:44;19.85;;;7.70;;
66721;SDS011;53633;49.932;10.884;2022-07-22T00:20:11;13.93;;;7.27;;
66721;SDS011;53633;49.932;10.884;2022-07-22T00:22:38;11.27;;;6.97;;
66721;SDS011;53633;49.932;10.884;2022-07-22T00:25:06;13.57;;;7.22;;
66721;SDS011;53633;49.932;10.884;2022-07-22T00:27:33;14.23;;;6.53;;
66721;SDS011;53633;49.932;10.884;2022-07-22T00:30:00;12.75;;;7.53;;
66721;SDS011;53633;49.932;10.884;2022-07-22T00:32:27;12.87;;;7.57;;
66721;SDS011;53633;49.932;10.884;2022-07-22T00:34:53;12.85;;;6.60;;
66721;SDS011;53633;49.932;10.884;2022-07-22T00:37:20;12.50;;;7.30;;
66721;SDS011;53633;49.932;10.884;2022-07-22T00:39:47;11.88;;;6.85;;
66721;SDS011;53633;49.932;10.884;2022-07-22T00:42:15;14.88;;;7.22;;
66721;SDS011;53633;49.932;10.884;2022-07-22T00:44:42;13.47;;;7.30;;
66721;SDS011;53633;49.932;10.884;2022-07-22T00:47:09;13.27;;;6.78;;
66721;SDS011;53633;49.932;10.884;2022-07-22T00:49:36;14.43;;;7.28;;
66721;SDS011;53633;49.932;10.884;2022-07-22T00:52:03;12.55;;;6.78;;
66721;SDS011;53633;49.932;10.884;2022-07-22T00:54:30;12.00;;;7.32;;
66721;SDS011;53633;49.932;10.884;2022-07-22T00:56:57;14.93;;;7.60;;
66721;SDS011;53633;49.932;10.884;2022-07-22T00:59:25;13.48;;;7.40;;
66721;SDS011;53633;49.932;10.884;2022-07-22T01:01:52;15.48;;;7.35;;
66721;SDS011;53633;49.932;10.884;2022-07-22T01:04:19;13.32;;;7.00;;
66721;SDS011;53633;49.932;10.884;2022-07-22T01:06:45;12.05;;;6.97;;
66721;SDS011;53633;49.932;10.884;2022-07-22T01:09:12;13.93;;;7.13;;
66721;SDS011;53633;49.932;10.884;2022-07-22T01:11:40;11.52;;;6.93;;
66721;SDS011;53633;49.932;10.884;2022-07-22T01:14:07;14.38;;;7.93;;
66721;SDS011;53633;49.932;10.884;2022-07-22T01:16:35;15.20;;;7.95;;
66721;SDS011;53633;49.932;10.884;2022-07-22T01:19:02;13.98;;;7.57;;
66721;SDS011;53633;49.932;10.884;2022-07-22T01:21:30;14.03;;;6.80;;
66721;SDS011;53633;49.932;10.884;2022-07-22T01:23:57;12.35;;;7.18;;
66721;SDS011;53633;49.932;10.884;2022-07-22T01:26:24;11.55;;;7.20;;
66721;SDS011;53633;49.932;10.884;2022-07-22T01:28:51;12.82;;;7.00;;
66721;SDS011;53633;49.932;10.884;2022-07-22T01:31:18;12.15;;;7.38;;
66721;SDS011;53633;49.932;10.884;2022-07-22T01:33:45;14.33;;;7.20;;
66721;SDS011;53633;49.932;10.884;2022-07-22T01:36:12;12.25;;;7.78;;
66721;SDS011;53633;49.932;10.884;2022-07-22T01:38:40;12.52;;;7.45;;
66721;SDS011;53633;49.932;10.884;2022-07-22T01:41:07;13.05;;;7.28;;
66721;SDS011;53633;49.932;10.884;2022-07-22T01:43:34;14.27;;;7.45;;
66721;SDS011;53633;49.932;10.884;2022-07-22T01:46:00;12.07;;;7.00;;
66721;SDS011;53633;49.932;10.884;2022-07-22T01:48:27;12.40;;;7.60;;
66721;SDS011;53633;49.932;10.884;2022-07-22T01:50:54;13.30;;;8.10;;
66721;SDS011;53633;49.932;10.884;2022-07-22T01:53:21;12.90;;;7.50;;
66721;SDS011;53633;49.932;10.884;2022-07-22T01:55:49;13.90;;;7.80;;
66721;SDS011;53633;49.932;10.884;2022-07-22T01:58:16;13.10;;;8.27;;
66721;SDS011;53633;49.932;10.884;2022-07-22T02:00:43;12.60;;;7.65;;
66721;SDS011;53633;49.932;10.884;2022-07-22T02:03:09;12.93;;;7.93;;
66721;SDS011;53633;49.932;10.884;2022-07-22T02:05:36;11.45;;;7.35;;
66721;SDS011;53633;49.932;10.884;2022-07-22T02:08:05;11.45;;;6.93;;
66721;SDS011;53633;49.932;10.884;2022-07-22T02:10:33;12.23;;;7.63;;
66721;SDS011;53633;49.932;10.884;2022-07-22T02:13:01;11.43;;;7.18;;
66721;SDS011;53633;49.932;10.884;2022-07-22T02:15:29;12.13;;;7.40;;
66721;SDS011;53633;49.932;10.884;2022-07-22T02:17:56;12.73;;;7.32;;
66721;SDS011;53633;49.932;10.884;2022-07-22T02:20:23;12.13;;;6.82;;
66721;SDS011;53633;49.932;10.884;2022-07-22T02:22:50;13.97;;;7.67;;
66721;SDS011;53633;49.932;10.884;2022-07-22T02:25:16;14.30;;;7.20;;
66721;SDS011;53633;49.932;10.884;2022-07-22T02:27:43;13.35;;;7.97;;
66721;SDS011;53633;49.932;10.884;2022-07-22T02:30:11;13.73;;;7.90;;
66721;SDS011;53633;49.932;10.884;2022-07-22T02:32:38;13.95;;;7.43;;
66721;SDS011;53633;49.932;10.884;2022-07-22T02:35:05;14.07;;;7.23;;
66721;SDS011;53633;49.932;10.884;2022-07-22T02:37:32;16.52;;;7.90;;
66721;SDS011;53633;49.932;10.884;2022-07-22T02:39:59;12.55;;;7.38;;
66721;SDS011;53633;49.932;10.884;2022-07-22T02:42:26;13.02;;;7.03;;
66721;SDS011;53633;49.932;10.884;2022-07-22T02:44:53;12.05;;;7.88;;
66721;SDS011;53633;49.932;10.884;2022-07-22T02:47:21;13.57;;;7.33;;
66721;SDS011;53633;49.932;10.884;2022-07-22T02:49:47;12.32;;;7.22;;
66721;SDS011;53633;49.932;10.884;2022-07-22T02:52:14;12.25;;;7.80;;
66721;SDS011;53633;49.932;10.884;2022-07-22T02:54:41;11.73;;;7.43;;
66721;SDS011;53633;49.932;10.884;2022-07-22T02:57:08;12.82;;;7.47;;
66721;SDS011;53633;49.932;10.884;2022-07-22T02:59:34;11.03;;;6.93;;
66721;SDS011;53633;49.932;10.884;2022-07-22T03:02:01;14.18;;;7.85;;
66721;SDS011;53633;49.932;10.884;2022-07-22T03:04:29;11.90;;;7.13;;
66721;SDS011;53633;49.932;10.884;2022-07-22T03:06:56;12.80;;;7.45;;
66721;SDS011;53633;49.932;10.884;2022-07-22T03:09:23;12.88;;;7.82;;
66721;SDS011;53633;49.932;10.884;2022-07-22T03:11:50;15.57;;;8.07;;
66721;SDS011;53633;49.932;10.884;2022-07-22T03:14:16;12.80;;;7.80;;
66721;SDS011;53633;49.932;10.884;2022-07-22T03:16:43;12.43;;;7.63;;
66721;SDS011;53633;49.932;10.884;2022-07-22T03:19:10;12.70;;;7.80;;
66721;SDS011;53633;49.932;10.884;2022-07-22T03:21:38;11.50;;;7.20;;
66721;SDS011;53633;49.932;10.884;2022-07-22T03:24:05;11.73;;;7.10;;
66721;SDS011;53633;49.932;10.884;2022-07-22T03:26:32;11.88;;;7.65;;
66721;SDS011;53633;49.932;10.884;2022-07-22T03:28:59;11.25;;;7.30;;
66721;SDS011;53633;49.932;10.884;2022-07-22T03:31:26;12.45;;;7.88;;
66721;SDS011;53633;49.932;10.884;2022-07-22T03:33:52;15.30;;;7.72;;
66721;SDS011;53633;49.932;10.884;2022-07-22T03:36:19;13.73;;;7.67;;
66721;SDS011;53633;49.932;10.884;2022-07-22T03:38:47;12.90;;;7.50;;
66721;SDS011;53633;49.932;10.884;2022-07-22T03:41:14;12.82;;;7.68;;
66721;SDS011;53633;49.932;10.884;2022-07-22T03:43:40;11.85;;;7.40;;
66721;SDS011;53633;49.932;10.884;2022-07-22T03:46:07;13.07;;;7.63;;
66721;SDS011;53633;49.932;10.884;2022-07-22T03:48:34;13.00;;;7.83;;
66721;SDS011;53633;49.932;10.884;2022-07-22T03:51:00;13.63;;;8.00;;
66721;SDS011;53633;49.932;10.884;2022-07-22T03:53:27;13.48;;;8.05;;
66721;SDS011;53633;49.932;10.884;2022-07-22T03:55:55;19.80;;;8.07;;
66721;SDS011;53633;49.932;10.884;2022-07-22T03:58:22;13.38;;;7.63;;
66721;SDS011;53633;49.932;10.884;2022-07-22T04:00:48;17.30;;;8.30;;
66721;SDS011;53633;49.932;10.884;2022-07-22T04:03:15;14.13;;;8.88;;
66721;SDS011;53633;49.932;10.884;2022-07-22T04:05:41;14.55;;;8.77;;
66721;SDS011;53633;49.932;10.884;2022-07-22T04:08:08;14.10;;;8.25;;
66721;SDS011;53633;49.932;10.884;2022-07-22T04:10:35;14.02;;;7.90;;
66721;SDS011;53633;49.932;10.884;2022-07-22T04:13:03;11.97;;;7.23;;
66721;SDS011;53633;49.932;10.884;2022-07-22T04:15:30;13.45;;;8.02;;
66721;SDS011;53633;49.932;10.884;2022-07-22T04:17:57;13.55;;;7.78;;
66721;SDS011;53633;49.932;10.884;2022-07-22T04:20:23;12.73;;;7.75;;
66721;SDS011;53633;49.932;10.884;2022-07-22T04:22:50;11.88;;;7.85;;
66721;SDS011;53633;49.932;10.884;2022-07-22T04:25:17;13.17;;;7.60;;
66721;SDS011;53633;49.932;10.884;2022-07-22T04:27:44;11.18;;;7.20;;
66721;SDS011;53633;49.932;10.884;2022-07-22T04:30:12;12.75;;;7.35;;
66721;SDS011;53633;49.932;10.884;2022-07-22T04:32:38;15.00;;;7.47;;
66721;SDS011;53633;49.932;10.884;2022-07-22T04:35:05;13.70;;;7.70;;
66721;SDS011;53633;49.932;10.884;2022-07-22T04:37:32;14.70;;;6.87;;
66721;SDS011;53633;49.932;10.884;2022-07-22T04:39:59;13.30;;;7.63;;
66721;SDS011;53633;49.932;10.884;2022-07-22T04:42:26;13.48;;;7.32;;
66721;SDS011;53633;49.932;10.884;2022-07-22T04:44:52;10.60;;;7.18;;
66721;SDS011;53633;49.932;10.884;2022-07-22T04:47:20;12.18;;;7.70;;
66721;SDS011;53633;49.932;10.884;2022-07-22T04:49:47;12.00;;;7.07;;
66721;SDS011;53633;49.932;10.884;2022-07-22T04:52:13;12.55;;;7.70;;
66721;SDS011;53633;49.932;10.884;2022-07-22T04:54:40;12.80;;;7.75;;
66721;SDS011;53633;49.932;10.884;2022-07-22T04:57:07;11.25;;;7.35;;
66721;SDS011;53633;49.932;10.884;2022-07-22T04:59:34;12.80;;;7.53;;
66721;SDS011;53633;49.932;10.884;2022-07-22T05:02:01;11.10;;;7.03;;
66721;SDS011;53633;49.932;10.884;2022-07-22T05:04:29;11.45;;;7.50;;
66721;SDS011;53633;49.932;10.884;2022-07-22T05:06:56;10.65;;;7.07;;
66721;SDS011;53633;49.932;10.884;2022-07-22T05:09:23;11.88;;;7.63;;
66721;SDS011;53633;49.932;10.884;2022-07-22T05:11:49;11.27;;;7.43;;
66721;SDS011;53633;49.932;10.884;2022-07-22T05:14:16;12.10;;;7.33;;
66721;SDS011;53633;49.932;10.884;2022-07-22T05:16:43;10.88;;;7.82;;
66721;SDS011;53633;49.932;10.884;2022-07-22T05:19:10;13.32;;;8.55;;
66721;SDS011;53633;49.932;10.884;2022-07-22T05:21:38;12.05;;;7.38;;
66721;SDS011;53633;49.932;10.884;2022-07-22T05:24:05;11.77;;;7.53;;
66721;SDS011;53633;49.932;10.884;2022-07-22T05:26:32;13.27;;;8.17;;
66721;SDS011;53633;49.932;10.884;2022-07-22T05:28:58;11.77;;;8.07;;
66721;SDS011;53633;49.932;10.884;2022-07-22T05:31:26;11.68;;;8.02;;
66721;SDS011;53633;49.932;10.884;2022-07-22T05:33:53;10.95;;;7.55;;
66721;SDS011;53633;49.932;10.884;2022-07-22T05:36:19;12.00;;;8.02;;
66721;SDS011;53633;49.932;10.884;2022-07-22T05:38:48;12.90;;;7.30;;
66721;SDS011;53633;49.932;10.884;2022-07-22T05:41:14;9.82;;;7.40;;
66721;SDS011;53633;49.932;10.884;2022-07-22T05:43:42;13.88;;;7.88;;
66721;SDS011;53633;49.932;10.884;2022-07-22T05:46:09;11.57;;;6.90;;
66721;SDS011;53633;49.932;10.884;2022-07-22T05:48:36;10.63;;;7.50;;
66721;SDS011;53633;49.932;10.884;2022-07-22T05:51:02;12.77;;;8.17;;
66721;SDS011;53633;49.932;10.884;2022-07-22T05:53:29;10.75;;;7.72;;
66721;SDS011;53633;49.932;10.884;2022-07-22T05:55:57;12.52;;;8.02;;
66721;SDS011;53633;49.932;10.884;2022-07-22T05:58:31;13.00;;;7.40;;
66721;SDS011;53633;49.932;10.884;2022-07-22T06:00:58;10.65;;;7.35;;
66721;SDS011;53633;49.932;10.884;2022-07-22T06:03:25;10.30;;;7.23;;
66721;SDS011;53633;49.932;10.884;2022-07-22T06:05:51;10.13;;;7.13;;
66721;SDS011;53633;49.932;10.884;2022-07-22T06:08:18;11.20;;;7.25;;
66721;SDS011;53633;49.932;10.884;2022-07-22T06:10:45;10.75;;;7.10;;
66721;SDS011;53633;49.932;10.884;2022-07-22T06:13:13;11.10;;;7.18;;
66721;SDS011;53633;49.932;10.884;2022-07-22T06:15:40;9.83;;;7.17;;
66721;SDS011;53633;49.932;10.884;2022-07-22T06:18:07;9.88;;;6.88;;
66721;SDS011;53633;49.932;10.884;2022-07-22T06:20:33;10.40;;;6.30;;
66721;SDS011;53633;49.932;10.884;2022-07-22T06:23:00;9.43;;;5.57;;
66721;SDS011;53633;49.932;10.884;2022-07-22T06:25:27;10.52;;;6.72;;
66721;SDS011;53633;49.932;10.884;2022-07-22T06:28:10;11.40;;;6.80;;
66721;SDS011;53633;49.932;10.884;2022-07-22T06:30:38;11.13;;;6.40;;
66721;SDS011;53633;49.932;10.884;2022-07-22T06:33:05;10.93;;;6.30;;
66721;SDS011;53633;49.932;10.884;2022-07-22T06:35:32;11.90;;;6.40;;
66721;SDS011;53633;49.932;10.884;2022-07-22T06:37:59;10.13;;;5.75;;
66721;SDS011;53633;49.932;10.884;2022-07-22T06:40:31;9.23;;;6.17;;
66721;SDS011;53633;49.932;10.884;2022-07-22T06:42:59;10.05;;;6.15;;
66721;SDS011;53633;49.932;10.884;2022-07-22T06:45:26;11.20;;;6.28;;
66721;SDS011;53633;49.932;10.884;2022-07-22T06:47:54;11.23;;;6.25;;
66721;SDS011;53633;49.932;10.884;2022-07-22T06:50:21;13.45;;;6.28;;
66721;SDS011;53633;49.932;10.884;2022-07-22T06:52:49;9.93;;;6.53;;
66721;SDS011;53633;49.932;10.884;2022-07-22T06:55:16;9.20;;;6.15;;
66721;SDS011;53633;49.932;10.884;2022-07-22T06:57:43;8.75;;;5.97;;
66721;SDS011;53633;49.932;10.884;2022-07-22T07:00:10;10.63;;;5.93;;
66721;SDS011;53633;49.932;10.884;2022-07-22T07:02:37;10.30;;;6.18;;
66721;SDS011;53633;49.932;10.884;2022-07-22T07:05:06;8.87;;;5.80;;
66721;SDS011;53633;49.932;10.884;2022-07-22T07:07:45;9.40;;;5.50;;
66721;SDS011;53633;49.932;10.884;2022-07-22T07:10:12;8.85;;;5.97;;
66721;SDS011;53633;49.932;10.884;2022-07-22T07:12:39;9.75;;;5.88;;
66721;SDS011;53633;49.932;10.884;2022-07-22T07:15:06;9.00;;;5.68;;
66721;SDS011;53633;49.932;10.884;2022-07-22T07:17:51;10.00;;;5.10;;
66721;SDS011;53633;49.932;10.884;2022-07-22T07:20:19;10.68;;;5.75;;
66721;SDS011;53633;49.932;10.884;2022-07-22T07:22:46;9.10;;;5.53;;
66721;SDS011;53633;49.932;10.884;2022-07-22T07:25:13;9.18;;;5.72;;
66721;SDS011;53633;49.932;10.884;2022-07-22T07:27:48;9.13;;;5.20;;
66721;SDS011;53633;49.932;10.884;2022-07-22T07:30:16;9.97;;;6.20;;
66721;SDS011;53633;49.932;10.884;2022-07-22T07:32:42;9.65;;;6.05;;
66721;SDS011;53633;49.932;10.884;2022-07-22T07:35:09;8.30;;;5.85;;
66721;SDS011;53633;49.932;10.884;2022-07-22T07:37:38;8.73;;;5.30;;
66721;SDS011;53633;49.932;10.884;2022-07-22T07:40:05;8.50;;;5.55;;
66721;SDS011;53633;49.932;10.884;2022-07-22T07:42:33;10.27;;;5.63;;
66721;SDS011;53633;49.932;10.884;2022-07-22T07:44:59;10.30;;;5.43;;
66721;SDS011;53633;49.932;10.884;2022-07-22T07:47:26;10.60;;;5.53;;
66721;SDS011;53633;49.932;10.884;2022-07-22T07:49:53;8.65;;;5.30;;
66721;SDS011;53633;49.932;10.884;2022-07-22T07:52:19;8.52;;;5.50;;
66721;SDS011;53633;49.932;10.884;2022-07-22T07:54:47;8.20;;;5.10;;
66721;SDS011;53633;49.932;10.884;2022-07-22T07:57:34;9.95;;;5.32;;
66721;SDS011;53633;49.932;10.884;2022-07-22T08:00:03;8.52;;;5.40;;
66721;SDS011;53633;49.932;10.884;2022-07-22T08:02:37;10.45;;;4.93;;
66721;SDS011;53633;49.932;10.884;2022-07-22T08:05:05;11.15;;;5.70;;
66721;SDS011;53633;49.932;10.884;2022-07-22T08:07:33;9.40;;;5.13;;
66721;SDS011;53633;49.932;10.884;2022-07-22T08:10:01;10.52;;;5.38;;
66721;SDS011;53633;49.932;10.884;2022-07-22T08:12:49;11.13;;;5.93;;
66721;SDS011;53633;49.932;10.884;2022-07-22T08:15:17;9.52;;;5.40;;
66721;SDS011;53633;49.932;10.884;2022-07-22T08:17:44;9.48;;;5.25;;
66721;SDS011;53633;49.932;10.884;2022-07-22T08:20:11;9.60;;;5.00;;
66721;SDS011;53633;49.932;10.884;2022-07-22T08:22:44;8.73;;;5.45;;
66721;SDS011;53633;49.932;10.884;2022-07-22T08:25:12;8.18;;;5.00;;
66721;SDS011;53633;49.932;10.884;2022-07-22T08:27:39;8.05;;;4.88;;
66721;SDS011;53633;49.932;10.884;2022-07-22T08:30:06;9.30;;;5.15;;
66721;SDS011;53633;49.932;10.884;2022-07-22T08:32:33;8.10;;;4.70;;
66721;SDS011;53633;49.932;10.884;2022-07-22T08:35:00;8.10;;;4.55;;
66721;SDS011;53633;49.932;10.884;2022-07-22T08:37:27;9.38;;;5.15;;
66721;SDS011;53633;49.932;10.884;2022-07-22T08:39:54;8.65;;;4.97;;
66721;SDS011;53633;49.932;10.884;2022-07-22T08:42:23;7.95;;;5.00;;
66721;SDS011;53633;49.932;10.884;2022-07-22T08:44:50;7.87;;;4.57;;
66721;SDS011;53633;49.932;10.884;2022-07-22T08:47:19;7.03;;;5.25;;
66721;SDS011;53633;49.932;10.884;2022-07-22T08:50:06;10.05;;;5.20;;
66721;SDS011;53633;49.932;10.884;2022-07-22T08:52:36;9.13;;;5.07;;
66721;SDS011;53633;49.932;10.884;2022-07-22T08:55:03;7.60;;;4.63;;
66721;SDS011;53633;49.932;10.884;2022-07-22T08:57:32;7.90;;;5.13;;
66721;SDS011;53633;49.932;10.884;2022-07-22T08:59:59;8.70;;;5.00;;
66721;SDS011;53633;49.932;10.884;2022-07-22T09:02:27;10.00;;;5.18;;
66721;SDS011;53633;49.932;10.884;2022-07-22T09:05:04;10.30;;;5.18;;
66721;SDS011;53633;49.932;10.884;2022-07-22T09:07:57;8.27;;;4.97;;
66721;SDS011;53633;49.932;10.884;2022-07-22T09:10:30;8.13;;;4.83;;
66721;SDS011;53633;49.932;10.884;2022-07-22T09:13:00;8.43;;;5.07;;
66721;SDS011;53633;49.932;10.884;2022-07-22T09:15:30;8.23;;;5.05;;
66721;SDS011;53633;49.932;10.884;2022-07-22T09:17:59;8.07;;;4.65;;
66721;SDS011;53633;49.932;10.884;2022-07-22T09:20:31;8.35;;;5.22;;
66721;SDS011;53633;49.932;10.884;2022-07-22T09:22:58;8.97;;;4.50;;
66721;SDS011;53633;49.932;10.884;2022-07-22T09:25:26;8.50;;;5.28;;
66721;SDS011;53633;49.932;10.884;2022-07-22T09:27:54;10.00;;;5.07;;
66721;SDS011;53633;49.932;10.884;2022-07-22T09:30:39;7.40;;;4.68;;
66721;SDS011;53633;49.932;10.884;2022-07-22T09:33:08;9.20;;;4.57;;
66721;SDS011;53633;49.932;10.884;2022-07-22T09:35:35;9.47;;;5.00;;
66721;SDS011;53633;49.932;10.884;2022-07-22T09:38:03;8.50;;;5.07;;
66721;SDS011;53633;49.932;10.884;2022-07-22T09:40:31;8.63;;;5.20;;
66721;SDS011;53633;49.932;10.884;2022-07-22T09:43:00;7.93;;;4.80;;
66721;SDS011;53633;49.932;10.884;2022-07-22T09:45:28;8.50;;;5.60;;
66721;SDS011;53633;49.932;10.884;2022-07-22T09:47:58;7.60;;;4.90;;
66721;SDS011;53633;49.932;10.884;2022-07-22T09:50:26;9.30;;;5.22;;
66721;SDS011;53633;49.932;10.884;2022-07-22T09:52:54;7.75;;;4.95;;
66721;SDS011;53633;49.932;10.884;2022-07-22T09:55:29;8.15;;;5.95;;
66721;SDS011;53633;49.932;10.884;2022-07-22T09:57:56;7.40;;;5.05;;
66721;SDS011;53633;49.932;10.884;2022-07-22T10:00:24;7.60;;;5.03;;
66721;SDS011;53633;49.932;10.884;2022-07-22T10:02:53;7.90;;;4.95;;
66721;SDS011;53633;49.932;10.884;2022-07-22T10:05:23;8.38;;;5.03;;
66721;SDS011;53633;49.932;10.884;2022-07-22T10:07:51;9.73;;;5.57;;
66721;SDS011;53633;49.932;10.884;2022-07-22T10:10:19;10.35;;;5.35;;
66721;SDS011;53633;49.932;10.884;2022-07-22T10:12:47;8.77;;;4.80;;
66721;SDS011;53633;49.932;10.884;2022-07-22T10:15:16;8.73;;;5.20;;
66721;SDS011;53633;49.932;10.884;2022-07-22T10:17:45;9.00;;;5.72;;
66721;SDS011;53633;49.932;10.884;2022-07-22T10:20:13;7.75;;;4.55;;
66721;SDS011;53633;49.932;10.884;2022-07-22T10:22:48;9.25;;;5.38;;
66721;SDS011;53633;49.932;10.884;2022-07-22T10:25:27;7.77;;;5.03;;
66721;SDS011;53633;49.932;10.884;2022-07-22T10:27:56;10.13;;;5.32;;
66721;SDS011;53633;49.932;10.884;2022-07-22T10:30:24;9.90;;;5.10;;
66721;SDS011;53633;49.932;10.884;2022-07-22T10:33:05;11.57;;;5.95;;
66721;SDS011;53633;49.932;10.884;2022-07-22T10:35:36;9.40;;;5.45;;
66721;SDS011;53633;49.932;10.884;2022-07-22T10:38:06;9.27;;;5.17;;
66721;SDS011;53633;49.932;10.884;2022-07-22T10:40:47;8.23;;;5.32;;
66721;SDS011;53633;49.932;10.884;2022-07-22T10:43:16;9.40;;;4.88;;
66721;SDS011;53633;49.932;10.884;2022-07-22T10:45:45;9.95;;;5.22;;
66721;SDS011;53633;49.932;10.884;2022-07-22T10:48:15;10.43;;;5.40;;
66721;SDS011;53633;49.932;10.884;2022-07-22T10:50:44;8.03;;;5.30;;
66721;SDS011;53633;49.932;10.884;2022-07-22T10:53:17;9.13;;;5.82;;
66721;SDS011;53633;49.932;10.884;2022-07-22T10:56:00;7.72;;;4.90;;
66721;SDS011;53633;49.932;10.884;2022-07-22T10:58:44;10.63;;;5.18;;
66721;SDS011;53633;49.932;10.884;2022-07-22T11:01:14;29.55;;;7.47;;
66721;SDS011;53633;49.932;10.884;2022-07-22T11:03:42;38.97;;;7.80;;
66721;SDS011;53633;49.932;10.884;2022-07-22T11:06:18;26.60;;;7.10;;
66721;SDS011;53633;49.932;10.884;2022-07-22T11:08:53;14.02;;;5.70;;
66721;SDS011;53633;49.932;10.884;2022-07-22T11:11:32;9.80;;;5.60;;
66721;SDS011;53633;49.932;10.884;2022-07-22T11:14:00;28.77;;;6.88;;
66721;SDS011;53633;49.932;10.884;2022-07-22T11:16:27;36.57;;;7.50;;
66721;SDS011;53633;49.932;10.884;2022-07-22T11:18:56;16.33;;;6.22;;
66721;SDS011;53633;49.932;10.884;2022-07-22T11:21:25;11.48;;;6.07;;
66721;SDS011;53633;49.932;10.884;2022-07-22T11:23:57;8.00;;;5.25;;
66721;SDS011;53633;49.932;10.884;2022-07-22T11:26:26;9.48;;;5.40;;
66721;SDS011;53633;49.932;10.884;2022-07-22T11:29:00;9.60;;;5.07;;
66721;SDS011;53633;49.932;10.884;2022-07-22T11:31:27;11.35;;;5.05;;
66721;SDS011;53633;49.932;10.884;2022-07-22T11:34:03;13.60;;;5.47;;
66721;SDS011;53633;49.932;10.884;2022-07-22T11:36:31;10.23;;;5.47;;
66721;SDS011;53633;49.932;10.884;2022-07-22T11:39:00;12.15;;;5.60;;
66721;SDS011;53633;49.932;10.884;2022-07-22T11:41:28;9.60;;;5.37;;
66721;SDS011;53633;49.932;10.884;2022-07-22T11:43:55;9.05;;;4.97;;
66721;SDS011;53633;49.932;10.884;2022-07-22T11:46:23;8.90;;;5.78;;
66721;SDS011;53633;49.932;10.884;2022-07-22T11:48:51;10.60;;;5.03;;
66721;SDS011;53633;49.932;10.884;2022-07-22T11:51:18;9.38;;;5.47;;
66721;SDS011;53633;49.932;10.884;2022-07-22T11:53:46;12.00;;;5.53;;
66721;SDS011;53633;49.932;10.884;2022-07-22T11:56:14;13.77;;;6.07;;
66721;SDS011;53633;49.932;10.884;2022-07-22T11:58:41;9.68;;;5.28;;
66721;SDS011;53633;49.932;10.884;2022-07-22T12:01:10;12.13;;;5.78;;
66721;SDS011;53633;49.932;10.884;2022-07-22T12:03:39;10.13;;;5.45;;
66721;SDS011;53633;49.932;10.884;2022-07-22T12:06:07;9.30;;;5.33;;
66721;SDS011;53633;49.932;10.884;2022-07-22T12:08:38;11.93;;;5.50;;
66721;SDS011;53633;49.932;10.884;2022-07-22T12:11:06;9.60;;;5.47;;
66721;SDS011;53633;49.932;10.884;2022-07-22T12:13:35;8.55;;;4.75;;
66721;SDS011;53633;49.932;10.884;2022-07-22T12:16:16;9.07;;;5.40;;
66721;SDS011;53633;49.932;10.884;2022-07-22T12:18:50;8.73;;;5.10;;
66721;SDS011;53633;49.932;10.884;2022-07-22T12:21:18;8.68;;;5.53;;
66721;SDS011;53633;49.932;10.884;2022-07-22T12:23:49;10.75;;;6.07;;
66721;SDS011;53633;49.932;10.884;2022-07-22T12:26:17;11.32;;;5.38;;
66721;SDS011;53633;49.932;10.884;2022-07-22T12:28:45;9.32;;;5.78;;
66721;SDS011;53633;49.932;10.884;2022-07-22T12:31:11;9.20;;;5.70;;
66721;SDS011;53633;49.932;10.884;2022-07-22T12:33:46;9.60;;;5.75;;
66721;SDS011;53633;49.932;10.884;2022-07-22T12:36:13;12.43;;;6.22;;
66721;SDS011;53633;49.932;10.884;2022-07-22T12:38:40;10.38;;;5.45;;
66721;SDS011;53633;49.932;10.884;2022-07-22T12:41:23;9.45;;;5.28;;
66721;SDS011;53633;49.932;10.884;2022-07-22T12:43:51;8.57;;;5.87;;
66721;SDS011;53633;49.932;10.884;2022-07-22T12:46:18;10.13;;;5.40;;
66721;SDS011;53633;49.932;10.884;2022-07-22T12:48:48;9.20;;;5.50;;
66721;SDS011;53633;49.932;10.884;2022-07-22T12:51:17;9.85;;;5.40;;
66721;SDS011;53633;49.932;10.884;2022-07-22T12:53:44;8.90;;;5.75;;
66721;SDS011;53633;49.932;10.884;2022-07-22T12:56:11;10.40;;;5.70;;
66721;SDS011;53633;49.932;10.884;2022-07-22T12:58:38;12.98;;;5.63;;
66721;SDS011;53633;49.932;10.884;2022-07-22T13:01:06;8.68;;;5.38;;
66721;SDS011;53633;49.932;10.884;2022-07-22T13:03:33;8.68;;;5.55;;
66721;SDS011;53633;49.932;10.884;2022-07-22T13:06:00;9.98;;;5.60;;
66721;SDS011;53633;49.932;10.884;2022-07-22T13:08:33;11.90;;;5.70;;
66721;SDS011;53633;49.932;10.884;2022-07-22T13:11:11;8.60;;;4.95;;
66721;SDS011;53633;49.932;10.884;2022-07-22T13:13:37;9.95;;;5.90;;
66721;SDS011;53633;49.932;10.884;2022-07-22T13:16:06;10.65;;;5.72;;
66721;SDS011;53633;49.932;10.884;2022-07-22T13:18:33;9.45;;;5.72;;
66721;SDS011;53633;49.932;10.884;2022-07-22T13:21:00;10.80;;;5.47;;
66721;SDS011;53633;49.932;10.884;2022-07-22T13:23:26;18.35;;;6.25;;
66721;SDS011;53633;49.932;10.884;2022-07-22T13:25:53;19.17;;;5.60;;
66721;SDS011;53633;49.932;10.884;2022-07-22T13:28:21;14.57;;;5.75;;
66721;SDS011;53633;49.932;10.884;2022-07-22T13:30:47;9.65;;;5.93;;
66721;SDS011;53633;49.932;10.884;2022-07-22T13:33:16;10.03;;;5.63;;
66721;SDS011;53633;49.932;10.884;2022-07-22T13:35:42;11.45;;;6.07;;
66721;SDS011;53633;49.932;10.884;2022-07-22T13:38:09;11.13;;;5.40;;
66721;SDS011;53633;49.932;10.884;2022-07-22T13:40:41;9.15;;;5.68;;
66721;SDS011;53633;49.932;10.884;2022-07-22T13:43:08;9.13;;;5.43;;
66721;SDS011;53633;49.932;10.884;2022-07-22T13:45:40;7.80;;;5.07;;
66721;SDS011;53633;49.932;10.884;2022-07-22T13:48:07;8.65;;;5.10;;
66721;SDS011;53633;49.932;10.884;2022-07-22T13:50:35;8.93;;;5.18;;
66721;SDS011;53633;49.932;10.884;2022-07-22T13:53:02;8.95;;;5.28;;
66721;SDS011;53633;49.932;10.884;2022-07-22T13:55:28;8.30;;;5.28;;
66721;SDS011;53633;49.932;10.884;2022-07-22T13:57:55;10.03;;;5.20;;
66721;SDS011;53633;49.932;10.884;2022-07-22T14:00:22;13.68;;;5.65;;
66721;SDS011;53633;49.932;10.884;2022-07-22T14:02:49;10.27;;;5.57;;
66721;SDS011;53633;49.932;10.884;2022-07-22T14:05:16;11.45;;;5.60;;
66721;SDS011;53633;49.932;10.884;2022-07-22T14:07:44;8.68;;;5.50;;
66721;SDS011;53633;49.932;10.884;2022-07-22T14:10:10;9.07;;;5.37;;
66721;SDS011;53633;49.932;10.884;2022-07-22T14:12:37;8.35;;;4.68;;
66721;SDS011;53633;49.932;10.884;2022-07-22T14:15:04;10.65;;;5.65;;
66721;SDS011;53633;49.932;10.884;2022-07-22T14:17:32;15.68;;;5.60;;
66721;SDS011;53633;49.932;10.884;2022-07-22T14:19:59;8.90;;;5.20;;
66721;SDS011;53633;49.932;10.884;2022-07-22T14:22:27;10.00;;;4.80;;
66721;SDS011;53633;49.932;10.884;2022-07-22T14:24:55;10.43;;;5.72;;
66721;SDS011;53633;49.932;10.884;2022-07-22T14:27:21;10.23;;;5.50;;
66721;SDS011;53633;49.932;10.884;2022-07-22T14:29:48;9.40;;;4.95;;
66721;SDS011;53633;49.932;10.884;2022-07-22T14:32:15;9.68;;;5.68;;